Time;durP1;ratioP1;P1;durP2;ratioP2;P2;SDS_P1;SDS_P2;PMS_P1;PMS_P2;Temp;Humidity;BMP_temperature;BMP_pressure;BME280_temperature;BME280_humidity;BME280_pressure;Samples;Min_cycle;Max_cycle;Signal;HPM_P1;HPM_P2
2022/07/28 00:00:36;;;;;;;2.55;1.48;;;;;;;;;;4992124;28;95848;-70
2022/07/28 00:03:03;;;;;;;2.42;1.30;;;;;;;;;;4994932;28;92368;-69
2022/07/28 00:05:29;;;;;;;5.80;1.60;;;;;;;;;;4997429;28;92938;-70
2022/07/28 00:07:56;;;;;;;5.00;1.40;;;;;;;;;;4993839;28;92910;-70
2022/07/28 00:10:22;;;;;;;7.13;1.45;;;;;;;;;;4994465;28;93100;-69
2022/07/28 00:12:49;;;;;;;1.40;1.23;;;;;;;;;;4993872;28;93331;-70
2022/07/28 00:15:15;;;;;;;9.23;1.50;;;;;;;;;;4994025;28;92530;-69
2022/07/28 00:17:41;;;;;;;4.30;1.55;;;;;;;;;;4994683;28;92821;-70
2022/07/28 00:20:08;;;;;;;4.13;1.60;;;;;;;;;;4993566;28;93324;-69
2022/07/28 00:22:39;;;;;;;3.15;1.88;;;;;;;;;;4994209;28;92396;-70
2022/07/28 00:25:06;;;;;;;4.15;1.40;;;;;;;;;;4993186;28;94873;-69
2022/07/28 00:27:32;;;;;;;2.38;1.50;;;;;;;;;;4997106;28;93642;-69
2022/07/28 00:29:59;;;;;;;11.07;1.70;;;;;;;;;;4993678;28;92905;-69
2022/07/28 00:32:25;;;;;;;6.05;1.60;;;;;;;;;;4995045;28;93169;-70
2022/07/28 00:34:51;;;;;;;2.47;1.35;;;;;;;;;;4996703;28;92724;-70
2022/07/28 00:37:19;;;;;;;3.72;1.80;;;;;;;;;;4998208;28;92918;-70
2022/07/28 00:39:45;;;;;;;3.67;1.70;;;;;;;;;;4997582;28;93402;-69
2022/07/28 00:42:11;;;;;;;3.85;1.45;;;;;;;;;;4997539;28;91842;-69
2022/07/28 00:44:40;;;;;;;4.90;1.95;;;;;;;;;;4996971;28;92412;-70
2022/07/28 00:47:07;;;;;;;6.40;1.73;;;;;;;;;;4989850;28;93174;-69
2022/07/28 00:49:33;;;;;;;4.15;1.98;;;;;;;;;;4998274;28;94835;-69
2022/07/28 00:52:00;;;;;;;1.73;1.63;;;;;;;;;;4996603;28;93278;-70
2022/07/28 00:54:26;;;;;;;2.92;1.70;;;;;;;;;;4997613;28;92469;-70
2022/07/28 00:56:53;;;;;;;4.60;1.90;;;;;;;;;;4996276;28;92330;-70
2022/07/28 00:59:19;;;;;;;2.53;1.77;;;;;;;;;;4997294;28;93290;-69
2022/07/28 01:01:47;;;;;;;5.50;1.70;;;;;;;;;;4996991;28;92568;-70
2022/07/28 01:04:14;;;;;;;5.30;1.52;;;;;;;;;;4988530;28;93764;-69
2022/07/28 01:06:47;;;;;;;4.80;1.85;;;;;;;;;;4998373;27;92629;-69
2022/07/28 01:09:27;;;;;;;8.13;2.00;;;;;;;;;;4997057;28;92570;-69
2022/07/28 01:11:57;;;;;;;6.05;1.63;;;;;;;;;;4999622;28;93223;-70
2022/07/28 01:14:36;;;;;;;6.25;2.30;;;;;;;;;;4995669;28;95384;-69
2022/07/28 01:17:07;;;;;;;3.88;1.80;;;;;;;;;;4996518;28;95524;-69
2022/07/28 01:19:37;;;;;;;3.55;1.77;;;;;;;;;;4997131;28;93367;-69
2022/07/28 01:22:04;;;;;;;4.88;1.80;;;;;;;;;;4996388;28;92516;-70
2022/07/28 01:24:49;;;;;;;5.00;2.22;;;;;;;;;;4996669;28;93128;-69
2022/07/28 01:27:38;;;;;;;3.90;1.70;;;;;;;;;;4997264;27;93488;-70
2022/07/28 01:30:07;;;;;;;3.50;1.90;;;;;;;;;;4996193;28;92463;-69
2022/07/28 01:32:41;;;;;;;2.95;1.50;;;;;;;;;;4999823;28;93116;-69
2022/07/28 01:35:27;;;;;;;10.57;1.90;;;;;;;;;;4996676;28;93699;-69
2022/07/28 01:37:56;;;;;;;7.13;1.98;;;;;;;;;;4991203;28;93081;-69
2022/07/28 01:40:24;;;;;;;6.22;2.03;;;;;;;;;;4994915;28;95751;-70
2022/07/28 01:42:55;;;;;;;1.85;1.65;;;;;;;;;;4996060;28;93475;-70
2022/07/28 01:45:22;;;;;;;5.68;2.08;;;;;;;;;;4995897;28;93160;-69
2022/07/28 01:47:50;;;;;;;6.05;1.77;;;;;;;;;;4995556;28;93389;-69
2022/07/28 01:50:19;;;;;;;5.35;2.17;;;;;;;;;;4996820;28;94202;-70
2022/07/28 01:52:46;;;;;;;1.95;1.85;;;;;;;;;;4995439;28;92989;-69
2022/07/28 01:55:13;;;;;;;7.47;3.63;;;;;;;;;;4999169;28;92476;-71
2022/07/28 01:57:40;;;;;;;5.65;2.28;;;;;;;;;;4996263;28;91817;-69
2022/07/28 02:00:09;;;;;;;5.15;2.20;;;;;;;;;;4995791;28;93424;-70
2022/07/28 02:02:39;;;;;;;6.90;2.03;;;;;;;;;;4995998;28;92474;-69
2022/07/28 02:05:07;;;;;;;5.90;2.05;;;;;;;;;;4995424;28;94940;-69
2022/07/28 02:07:33;;;;;;;4.30;1.90;;;;;;;;;;4995723;28;94095;-69
2022/07/28 02:10:01;;;;;;;3.63;1.83;;;;;;;;;;4996499;28;92505;-69
2022/07/28 02:12:28;;;;;;;7.07;2.08;;;;;;;;;;4996360;28;93844;-69
2022/07/28 02:14:55;;;;;;;6.32;2.45;;;;;;;;;;4994999;28;93359;-70
2022/07/28 02:17:25;;;;;;;6.78;2.30;;;;;;;;;;4999394;28;92423;-69
2022/07/28 02:19:53;;;;;;;3.83;1.95;;;;;;;;;;4994476;28;94356;-69
2022/07/28 02:22:19;;;;;;;14.80;2.42;;;;;;;;;;4995446;28;91746;-69
2022/07/28 02:24:47;;;;;;;5.97;2.30;;;;;;;;;;4995527;28;93190;-69
2022/07/28 02:27:13;;;;;;;6.15;2.08;;;;;;;;;;4995206;28;94216;-70
2022/07/28 02:29:43;;;;;;;3.67;1.80;;;;;;;;;;4994085;28;94916;-69
2022/07/28 02:32:17;;;;;;;4.88;2.28;;;;;;;;;;4996215;28;95423;-69
2022/07/28 02:35:03;;;;;;;5.38;2.33;;;;;;;;;;4994596;28;94152;-69
2022/07/28 02:37:36;;;;;;;3.95;2.03;;;;;;;;;;4996360;28;92429;-69
2022/07/28 02:40:04;;;;;;;2.80;2.35;;;;;;;;;;4991042;28;93016;-70
2022/07/28 02:42:31;;;;;;;4.53;2.30;;;;;;;;;;4995102;28;92506;-70
2022/07/28 02:44:59;;;;;;;6.32;2.10;;;;;;;;;;4995388;28;93202;-70
2022/07/28 02:47:30;;;;;;;11.93;2.22;;;;;;;;;;4995149;28;92433;-69
2022/07/28 02:49:57;;;;;;;2.53;2.08;;;;;;;;;;4993729;28;92818;-69
2022/07/28 02:52:25;;;;;;;6.38;2.25;;;;;;;;;;4995629;28;92313;-69
2022/07/28 02:54:52;;;;;;;8.60;3.00;;;;;;;;;;4992945;28;95600;-70
2022/07/28 02:57:20;;;;;;;4.85;3.20;;;;;;;;;;4996243;28;92429;-69
2022/07/28 02:59:48;;;;;;;8.00;2.30;;;;;;;;;;4994856;28;92503;-70
2022/07/28 03:02:17;;;;;;;6.85;2.90;;;;;;;;;;4990272;28;93298;-69
2022/07/28 03:04:55;;;;;;;4.30;2.47;;;;;;;;;;4994902;28;94205;-69
2022/07/28 03:07:22;;;;;;;4.03;2.25;;;;;;;;;;4988698;28;93090;-70
2022/07/28 03:09:48;;;;;;;7.18;2.60;;;;;;;;;;4994546;28;92536;-70
2022/07/28 03:12:15;;;;;;;8.77;2.83;;;;;;;;;;4995714;28;93007;-69
2022/07/28 03:14:41;;;;;;;7.18;2.63;;;;;;;;;;4994744;28;94297;-69
2022/07/28 03:17:08;;;;;;;7.57;2.97;;;;;;;;;;4994432;28;92256;-69
2022/07/28 03:19:34;;;;;;;11.75;2.38;;;;;;;;;;4993866;28;94819;-69
2022/07/28 03:22:01;;;;;;;4.22;2.35;;;;;;;;;;4994821;28;94237;-70
2022/07/28 03:24:29;;;;;;;6.85;2.58;;;;;;;;;;4996796;28;92543;-69
2022/07/28 03:27:02;;;;;;;5.13;2.58;;;;;;;;;;4994781;28;93281;-69
2022/07/28 03:29:30;;;;;;;3.90;2.38;;;;;;;;;;4995194;28;92511;-69
2022/07/28 03:31:57;;;;;;;3.22;2.65;;;;;;;;;;4993865;28;93834;-70
2022/07/28 03:34:24;;;;;;;6.97;2.83;;;;;;;;;;4994211;28;93341;-70
2022/07/28 03:36:55;;;;;;;9.05;3.03;;;;;;;;;;4995304;28;91657;-69
2022/07/28 03:39:22;;;;;;;4.93;2.08;;;;;;;;;;4992807;28;93101;-69
2022/07/28 03:41:50;;;;;;;2.40;2.20;;;;;;;;;;4994469;28;93643;-69
2022/07/28 03:44:17;;;;;;;6.22;2.78;;;;;;;;;;4995501;28;94831;-69
2022/07/28 03:46:54;;;;;;;9.23;3.03;;;;;;;;;;4994047;28;93291;-69
2022/07/28 03:49:21;;;;;;;6.63;3.05;;;;;;;;;;4994695;28;92535;-69
2022/07/28 03:51:47;;;;;;;5.55;2.33;;;;;;;;;;4993995;28;93107;-69
2022/07/28 03:54:13;;;;;;;7.93;2.30;;;;;;;;;;4994147;28;93429;-70
2022/07/28 03:56:40;;;;;;;8.68;2.85;;;;;;;;;;4987046;28;92376;-69
2022/07/28 03:59:07;;;;;;;3.25;2.25;;;;;;;;;;4993308;28;93069;-69
2022/07/28 04:01:33;;;;;;;4.07;2.50;;;;;;;;;;4994819;28;91874;-70
2022/07/28 04:04:00;;;;;;;4.82;2.88;;;;;;;;;;4994834;28;92942;-70
2022/07/28 04:06:26;;;;;;;8.70;2.90;;;;;;;;;;4997039;28;92976;-70
2022/07/28 04:08:52;;;;;;;11.52;2.92;;;;;;;;;;4996107;28;95041;-70
2022/07/28 04:11:19;;;;;;;8.00;2.65;;;;;;;;;;4998017;28;96177;-70
2022/07/28 04:13:46;;;;;;;3.60;2.50;;;;;;;;;;4996351;28;93564;-70
2022/07/28 04:16:12;;;;;;;7.78;3.03;;;;;;;;;;4997922;28;92448;-70
2022/07/28 04:18:39;;;;;;;4.25;2.63;;;;;;;;;;4996936;28;92940;-70
2022/07/28 04:21:05;;;;;;;4.00;2.97;;;;;;;;;;4997352;28;93225;-70
2022/07/28 04:23:31;;;;;;;6.10;2.42;;;;;;;;;;4997725;28;92509;-70
2022/07/28 04:25:58;;;;;;;7.63;2.42;;;;;;;;;;4990944;28;92971;-70
2022/07/28 04:28:24;;;;;;;7.50;2.80;;;;;;;;;;5000207;28;93278;-72
2022/07/28 04:30:50;;;;;;;6.03;2.92;;;;;;;;;;4997128;28;94067;-70
2022/07/28 04:33:18;;;;;;;4.10;2.90;;;;;;;;;;4995888;28;96340;-70
2022/07/28 04:35:45;;;;;;;8.80;2.67;;;;;;;;;;4996642;28;92534;-70
2022/07/28 04:38:13;;;;;;;11.13;2.95;;;;;;;;;;4997670;28;94133;-70
2022/07/28 04:40:41;;;;;;;11.23;2.85;;;;;;;;;;4996913;28;93322;-69
2022/07/28 04:43:09;;;;;;;4.60;3.17;;;;;;;;;;4997821;28;92831;-69
2022/07/28 04:45:35;;;;;;;6.20;2.92;;;;;;;;;;4997491;28;93141;-70
2022/07/28 04:48:02;;;;;;;5.93;2.75;;;;;;;;;;4997683;27;93218;-70
2022/07/28 04:50:28;;;;;;;5.53;2.95;;;;;;;;;;5001001;28;91735;-69
2022/07/28 04:52:58;;;;;;;2.63;2.25;;;;;;;;;;4996668;28;94017;-69
2022/07/28 04:55:25;;;;;;;3.83;2.55;;;;;;;;;;4996612;28;92735;-69
2022/07/28 04:57:51;;;;;;;8.30;3.00;;;;;;;;;;4995073;28;94956;-69
2022/07/28 05:00:18;;;;;;;5.60;2.65;;;;;;;;;;4997022;28;94135;-70
2022/07/28 05:02:47;;;;;;;7.32;2.65;;;;;;;;;;4996574;28;92937;-69
2022/07/28 05:05:14;;;;;;;9.00;2.90;;;;;;;;;;4989353;28;93003;-69
2022/07/28 05:07:41;;;;;;;3.90;2.38;;;;;;;;;;4996775;28;93431;-70
2022/07/28 05:10:08;;;;;;;9.30;2.53;;;;;;;;;;4996134;28;92784;-69
2022/07/28 05:12:35;;;;;;;8.32;2.72;;;;;;;;;;5000296;28;93039;-70
2022/07/28 05:15:01;;;;;;;5.50;2.63;;;;;;;;;;4997196;28;91737;-69
2022/07/28 05:17:28;;;;;;;10.65;2.60;;;;;;;;;;4995324;28;92476;-70
2022/07/28 05:19:54;;;;;;;8.63;2.70;;;;;;;;;;4996294;28;93610;-70
2022/07/28 05:22:20;;;;;;;4.22;2.45;;;;;;;;;;4995282;28;94774;-69
2022/07/28 05:24:47;;;;;;;3.72;2.70;;;;;;;;;;4996144;28;95539;-69
2022/07/28 05:27:13;;;;;;;6.32;3.85;;;;;;;;;;4996489;28;93570;-69
2022/07/28 05:29:40;;;;;;;5.22;2.58;;;;;;;;;;4996198;28;93746;-69
2022/07/28 05:32:13;;;;;;;8.07;2.45;;;;;;;;;;4999926;28;92728;-69
2022/07/28 05:34:43;;;;;;;9.63;2.65;;;;;;;;;;4996902;28;92540;-70
2022/07/28 05:37:09;;;;;;;7.93;2.58;;;;;;;;;;4996003;28;93246;-70
2022/07/28 05:39:36;;;;;;;5.53;2.33;;;;;;;;;;4996075;28;91840;-69
2022/07/28 05:42:03;;;;;;;4.70;2.60;;;;;;;;;;4996788;28;92475;-69
2022/07/28 05:44:29;;;;;;;13.55;2.47;;;;;;;;;;4995488;28;93234;-69
2022/07/28 05:47:03;;;;;;;3.13;2.40;;;;;;;;;;4994784;28;95605;-69
2022/07/28 05:49:30;;;;;;;5.75;2.35;;;;;;;;;;4996615;28;92449;-69
2022/07/28 05:51:56;;;;;;;4.95;2.30;;;;;;;;;;4995512;28;93198;-69
2022/07/28 05:54:23;;;;;;;4.35;2.20;;;;;;;;;;4999401;28;93416;-69
2022/07/28 05:56:49;;;;;;;7.38;2.03;;;;;;;;;;4996101;28;93482;-69
2022/07/28 05:59:18;;;;;;;6.43;2.35;;;;;;;;;;4995098;28;93352;-69
2022/07/28 06:01:45;;;;;;;6.70;2.65;;;;;;;;;;4996142;28;92514;-69
2022/07/28 06:04:11;;;;;;;5.05;3.15;;;;;;;;;;4996841;28;94443;-69
2022/07/28 06:06:55;;;;;;;7.05;2.22;;;;;;;;;;4989028;28;92943;-69
2022/07/28 06:09:21;;;;;;;6.00;2.20;;;;;;;;;;4996673;28;93333;-69
2022/07/28 06:11:49;;;;;;;10.55;2.67;;;;;;;;;;4994619;28;94647;-69
2022/07/28 06:14:16;;;;;;;2.72;1.67;;;;;;;;;;4995877;28;93118;-69
2022/07/28 06:16:43;;;;;;;5.43;1.88;;;;;;;;;;4998785;28;92517;-69
2022/07/28 06:19:10;;;;;;;5.30;1.70;;;;;;;;;;4995100;28;93453;-70
2022/07/28 06:21:37;;;;;;;2.53;1.80;;;;;;;;;;4995583;28;92574;-69
2022/07/28 06:24:06;;;;;;;4.03;1.92;;;;;;;;;;4996041;28;92739;-68
2022/07/28 06:26:35;;;;;;;4.15;1.65;;;;;;;;;;4994529;28;93250;-69
2022/07/28 06:29:07;;;;;;;6.00;1.70;;;;;;;;;;4996137;28;91881;-70
2022/07/28 06:31:34;;;;;;;5.78;1.60;;;;;;;;;;4994969;28;93146;-70
2022/07/28 06:34:01;;;;;;;8.23;1.67;;;;;;;;;;4994691;28;93269;-70
2022/07/28 06:36:27;;;;;;;3.47;1.80;;;;;;;;;;4994354;28;94954;-70
2022/07/28 06:38:54;;;;;;;3.08;1.67;;;;;;;;;;4997929;28;95551;-70
2022/07/28 06:41:20;;;;;;;1.88;1.38;;;;;;;;;;4994873;28;92452;-69
2022/07/28 06:43:46;;;;;;;2.00;1.38;;;;;;;;;;4995291;28;94017;-70
2022/07/28 06:46:17;;;;;;;3.40;1.70;;;;;;;;;;4995391;28;93746;-70
2022/07/28 06:48:44;;;;;;;7.43;1.73;;;;;;;;;;4994063;28;92440;-69
2022/07/28 06:51:11;;;;;;;1.95;1.42;;;;;;;;;;4995165;28;92810;-69
2022/07/28 06:53:38;;;;;;;7.90;1.60;;;;;;;;;;4995240;28;92689;-70
2022/07/28 06:56:04;;;;;;;2.10;1.40;;;;;;;;;;4994496;28;92920;-70
2022/07/28 06:58:31;;;;;;;8.07;2.40;;;;;;;;;;4995666;28;93047;-70
2022/07/28 07:00:59;;;;;;;3.13;1.20;;;;;;;;;;4995818;28;95793;-69
2022/07/28 07:03:26;;;;;;;5.72;2.00;;;;;;;;;;4994652;28;95773;-69
2022/07/28 07:05:53;;;;;;;2.88;1.30;;;;;;;;;;4993785;28;93230;-69
2022/07/28 07:08:19;;;;;;;2.67;1.30;;;;;;;;;;4994174;28;92669;-70
2022/07/28 07:10:46;;;;;;;2.17;1.38;;;;;;;;;;4994920;28;92903;-70
2022/07/28 07:13:12;;;;;;;3.80;1.60;;;;;;;;;;4994830;28;93285;-70
2022/07/28 07:15:39;;;;;;;2.92;1.20;;;;;;;;;;4994320;28;92378;-70
2022/07/28 07:18:05;;;;;;;1.65;1.25;;;;;;;;;;4995343;28;93154;-70
2022/07/28 07:20:32;;;;;;;4.53;1.42;;;;;;;;;;4994998;28;93337;-70
2022/07/28 07:22:58;;;;;;;3.38;1.50;;;;;;;;;;4997031;28;92437;-70
2022/07/28 07:25:25;;;;;;;4.32;1.77;;;;;;;;;;4993274;28;95800;-70
2022/07/28 07:27:51;;;;;;;3.67;1.77;;;;;;;;;;4995184;28;92495;-70
2022/07/28 07:30:17;;;;;;;2.72;1.17;;;;;;;;;;4994530;28;93549;-70
2022/07/28 07:32:44;;;;;;;2.65;1.15;;;;;;;;;;4994403;28;92407;-70
2022/07/28 07:35:13;;;;;;;6.05;1.30;;;;;;;;;;4995024;28;92472;-69
2022/07/28 07:37:40;;;;;;;4.57;1.40;;;;;;;;;;4993726;28;92952;-70
2022/07/28 07:40:06;;;;;;;2.53;1.50;;;;;;;;;;4994196;28;93114;-69
2022/07/28 07:42:33;;;;;;;4.45;1.50;;;;;;;;;;4998794;28;91591;-70
2022/07/28 07:44:59;;;;;;;3.72;0.98;;;;;;;;;;4993384;28;94156;-70
2022/07/28 07:47:26;;;;;;;2.15;1.38;;;;;;;;;;4993844;28;92688;-70
2022/07/28 07:49:52;;;;;;;2.28;1.08;;;;;;;;;;4993270;28;94744;-70
2022/07/28 07:52:19;;;;;;;4.70;1.20;;;;;;;;;;4993755;28;93320;-70
2022/07/28 07:54:45;;;;;;;2.08;1.00;;;;;;;;;;4994466;28;92429;-70
2022/07/28 07:57:12;;;;;;;2.55;1.20;;;;;;;;;;4995304;28;92989;-70
2022/07/28 07:59:38;;;;;;;3.85;1.30;;;;;;;;;;4994260;28;93380;-69
2022/07/28 08:02:04;;;;;;;2.38;1.20;;;;;;;;;;4995005;28;92705;-69
2022/07/28 08:04:31;;;;;;;2.42;1.10;;;;;;;;;;4997070;28;92878;-69
2022/07/28 08:07:04;;;;;;;6.47;0.95;;;;;;;;;;4995494;28;91710;-69
2022/07/28 08:09:32;;;;;;;1.40;1.00;;;;;;;;;;4994838;28;93796;-69
2022/07/28 08:11:58;;;;;;;2.35;1.15;;;;;;;;;;4993466;28;93875;-69
2022/07/28 08:14:25;;;;;;;4.05;0.98;;;;;;;;;;4992885;28;94792;-69
2022/07/28 08:16:51;;;;;;;2.25;1.25;;;;;;;;;;4986945;28;95421;-70
2022/07/28 08:19:17;;;;;;;1.67;0.95;;;;;;;;;;4993972;28;93415;-70
2022/07/28 08:21:47;;;;;;;1.30;1.20;;;;;;;;;;4994215;28;94174;-70
2022/07/28 08:24:14;;;;;;;2.50;1.00;;;;;;;;;;4994818;28;93950;-69
2022/07/28 08:26:58;;;;;;;1.17;1.08;;;;;;;;;;4995981;28;93264;-70
2022/07/28 08:29:24;;;;;;;3.42;1.25;;;;;;;;;;4994406;28;93959;-69
2022/07/28 08:31:53;;;;;;;5.75;1.20;;;;;;;;;;4992945;28;93723;-70
2022/07/28 08:34:19;;;;;;;1.85;0.70;;;;;;;;;;4993798;28;92947;-69
2022/07/28 08:36:59;;;;;;;7.13;1.30;;;;;;;;;;4986367;28;92969;-70
2022/07/28 08:39:25;;;;;;;1.50;0.82;;;;;;;;;;4992418;28;95676;-70
2022/07/28 08:42:00;;;;;;;0.95;0.70;;;;;;;;;;4993302;28;92575;-70
2022/07/28 08:44:30;;;;;;;2.60;1.02;;;;;;;;;;4994397;28;93203;-70
2022/07/28 08:46:57;;;;;;;3.15;1.05;;;;;;;;;;4992026;28;93268;-70
2022/07/28 08:49:25;;;;;;;2.17;1.08;;;;;;;;;;4997882;28;92468;-69
2022/07/28 08:51:53;;;;;;;1.85;0.90;;;;;;;;;;4993263;28;94079;-70
2022/07/28 08:54:21;;;;;;;4.63;1.17;;;;;;;;;;4995972;28;92582;-70
2022/07/28 08:56:48;;;;;;;2.80;1.05;;;;;;;;;;4997837;28;93221;-69
2022/07/28 08:59:14;;;;;;;1.88;1.15;;;;;;;;;;4997374;28;92343;-70
2022/07/28 09:01:41;;;;;;;1.35;0.80;;;;;;;;;;4996753;28;92807;-70
2022/07/28 09:04:08;;;;;;;2.45;1.17;;;;;;;;;;4995970;28;94891;-70
2022/07/28 09:06:40;;;;;;;1.05;0.98;;;;;;;;;;4996999;28;93219;-70
2022/07/28 09:09:08;;;;;;;2.45;0.80;;;;;;;;;;4996243;28;92459;-70
2022/07/28 09:11:35;;;;;;;1.55;0.77;;;;;;;;;;5000799;28;94000;-70
2022/07/28 09:14:02;;;;;;;2.30;0.95;;;;;;;;;;4997063;28;92411;-70
2022/07/28 09:16:29;;;;;;;3.33;0.73;;;;;;;;;;4996876;28;93176;-70
2022/07/28 09:18:56;;;;;;;3.28;0.88;;;;;;;;;;4996451;28;93056;-70
2022/07/28 09:21:22;;;;;;;1.30;1.17;;;;;;;;;;4997683;28;91680;-70
2022/07/28 09:23:48;;;;;;;1.00;0.80;;;;;;;;;;4996387;28;93348;-70
2022/07/28 09:26:16;;;;;;;1.65;0.90;;;;;;;;;;4997191;28;93455;-70
2022/07/28 09:28:52;;;;;;;3.47;0.93;;;;;;;;;;4995161;28;94753;-70
2022/07/28 09:31:21;;;;;;;0.88;0.73;;;;;;;;;;4996787;28;95385;-69
2022/07/28 09:33:59;;;;;;;3.92;1.25;;;;;;;;;;4999921;28;93253;-70
2022/07/28 09:36:26;;;;;;;2.00;1.10;;;;;;;;;;4996682;28;92847;-71
2022/07/28 09:38:53;;;;;;;1.77;0.80;;;;;;;;;;4996327;28;93724;-70
2022/07/28 09:41:22;;;;;;;1.05;0.95;;;;;;;;;;4996334;28;92513;-69
2022/07/28 09:43:49;;;;;;;1.65;0.80;;;;;;;;;;4996060;28;93186;-70
2022/07/28 09:46:21;;;;;;;3.05;1.10;;;;;;;;;;4996931;28;92642;-70
2022/07/28 09:48:49;;;;;;;2.15;0.80;;;;;;;;;;4996279;28;92780;-69
2022/07/28 09:51:21;;;;;;;2.25;1.10;;;;;;;;;;4996482;28;93917;-70
2022/07/28 09:53:48;;;;;;;2.53;1.33;;;;;;;;;;4998038;28;95880;-70
2022/07/28 09:56:14;;;;;;;3.85;1.10;;;;;;;;;;4996725;28;95982;-69
2022/07/28 09:58:51;;;;;;;1.55;0.90;;;;;;;;;;4996417;28;92423;-70
2022/07/28 10:01:20;;;;;;;3.80;1.02;;;;;;;;;;4996538;28;92551;-70
2022/07/28 10:03:51;;;;;;;1.73;1.00;;;;;;;;;;4996541;28;93153;-70
2022/07/28 10:06:28;;;;;;;2.35;0.90;;;;;;;;;;4995983;28;94383;-70
2022/07/28 10:08:56;;;;;;;1.73;0.80;;;;;;;;;;4990141;28;92401;-69
2022/07/28 10:11:25;;;;;;;3.60;0.90;;;;;;;;;;4996499;28;94115;-70
2022/07/28 10:13:57;;;;;;;2.78;1.00;;;;;;;;;;4996022;28;94575;-69
2022/07/28 10:16:25;;;;;;;2.50;1.13;;;;;;;;;;4999230;28;92441;-69
2022/07/28 10:18:52;;;;;;;3.13;1.13;;;;;;;;;;4993094;28;96370;-70
2022/07/28 10:21:19;;;;;;;1.17;1.02;;;;;;;;;;4995976;28;92555;-70
2022/07/28 10:23:47;;;;;;;1.25;0.70;;;;;;;;;;4995258;28;93635;-70
2022/07/28 10:26:14;;;;;;;2.83;1.25;;;;;;;;;;4995370;28;92540;-69
2022/07/28 10:28:43;;;;;;;3.67;1.45;;;;;;;;;;4996074;28;92550;-70
2022/07/28 10:31:12;;;;;;;4.63;1.02;;;;;;;;;;4996159;28;92842;-70
2022/07/28 10:33:43;;;;;;;2.38;1.30;;;;;;;;;;4994727;28;92385;-69
2022/07/28 10:36:10;;;;;;;3.15;1.48;;;;;;;;;;4997047;28;93289;-70
2022/07/28 10:38:38;;;;;;;0.73;0.73;;;;;;;;;;4998416;28;92495;-70
2022/07/28 10:41:05;;;;;;;2.42;1.10;;;;;;;;;;4995332;28;92424;-70
2022/07/28 10:43:32;;;;;;;1.00;0.88;;;;;;;;;;4994276;28;95274;-70
2022/07/28 10:45:59;;;;;;;3.60;0.90;;;;;;;;;;4995630;28;92386;-70
2022/07/28 10:48:34;;;;;;;1.83;0.80;;;;;;;;;;4996888;27;92694;-70
2022/07/28 10:51:01;;;;;;;2.40;0.90;;;;;;;;;;4996240;28;92390;-70
2022/07/28 10:53:30;;;;;;;0.98;0.80;;;;;;;;;;4994984;28;93324;-70
2022/07/28 10:55:59;;;;;;;2.03;0.90;;;;;;;;;;4995628;28;92455;-70
2022/07/28 10:58:41;;;;;;;1.17;0.68;;;;;;;;;;4995814;28;92973;-70
2022/07/28 11:01:08;;;;;;;5.78;1.50;;;;;;;;;;4998238;28;94006;-70
2022/07/28 11:03:52;;;;;;;0.82;0.80;;;;;;;;;;4995717;28;93177;-70
2022/07/28 11:06:25;;;;;;;7.28;1.48;;;;;;;;;;4995942;28;92620;-70
2022/07/28 11:08:52;;;;;;;2.47;0.95;;;;;;;;;;4993584;28;94866;-70
2022/07/28 11:11:38;;;;;;;3.58;1.30;;;;;;;;;;4995490;28;96391;-71
2022/07/28 11:14:36;;;;;;;2.75;0.90;;;;;;;;;;4994621;28;93415;-70
2022/07/28 11:17:07;;;;;;;1.13;1.00;;;;;;;;;;4990669;28;92524;-69
2022/07/28 11:19:42;;;;;;;2.65;0.82;;;;;;;;;;4995123;28;93216;-69
2022/07/28 11:22:28;;;;;;;2.83;0.82;;;;;;;;;;4994888;28;93417;-70
2022/07/28 11:27:44;;;;;;;1.33;0.73;;;;;;;;;;4996064;28;92764;-69
2022/07/28 11:30:31;;;;;;;2.50;0.73;;;;;;;;;;4994451;28;92426;-69
2022/07/28 11:32:58;;;;;;;5.15;1.20;;;;;;;;;;4994786;28;93956;-69
2022/07/28 11:35:25;;;;;;;1.10;1.00;;;;;;;;;;4992664;28;96515;-70
2022/07/28 11:38:00;;;;;;;5.63;1.00;;;;;;;;;;4995317;28;92677;-70
2022/07/28 11:40:33;;;;;;;1.00;1.00;;;;;;;;;;4994982;28;93893;-70
2022/07/28 11:43:18;;;;;;;2.90;1.20;;;;;;;;;;4994019;28;93547;-70
2022/07/28 11:45:48;;;;;;;2.35;1.27;;;;;;;;;;4989594;28;92412;-70
2022/07/28 11:48:21;;;;;;;1.48;0.98;;;;;;;;;;4998244;28;93127;-70
2022/07/28 11:51:03;;;;;;;2.22;1.10;;;;;;;;;;4994525;28;92506;-70
2022/07/28 11:53:36;;;;;;;1.13;0.77;;;;;;;;;;4995296;28;93023;-70
2022/07/28 11:56:07;;;;;;;1.00;0.90;;;;;;;;;;4995107;28;95080;-70
2022/07/28 11:58:33;;;;;;;5.35;0.80;;;;;;;;;;4994229;28;92786;-70
2022/07/28 12:01:09;;;;;;;6.43;1.02;;;;;;;;;;4993679;28;95742;-70
2022/07/28 12:03:44;;;;;;;0.95;0.85;;;;;;;;;;4994484;27;93144;-70
2022/07/28 12:06:16;;;;;;;1.58;1.00;;;;;;;;;;4995029;28;92512;-69
2022/07/28 12:08:55;;;;;;;3.85;1.08;;;;;;;;;;4997706;28;92904;-70
2022/07/28 12:11:23;;;;;;;1.77;1.13;;;;;;;;;;4994027;28;92935;-70
2022/07/28 12:13:59;;;;;;;1.15;0.85;;;;;;;;;;4986487;28;93193;-70
2022/07/28 12:16:26;;;;;;;1.25;0.88;;;;;;;;;;4994430;28;93869;-70
2022/07/28 12:18:53;;;;;;;0.93;0.82;;;;;;;;;;4994892;28;92272;-70
2022/07/28 12:21:38;;;;;;;0.82;0.82;;;;;;;;;;4995396;28;93457;-70
2022/07/28 12:24:14;;;;;;;1.20;1.05;;;;;;;;;;4990462;28;93405;-71
2022/07/28 12:26:41;;;;;;;1.00;0.95;;;;;;;;;;4991751;28;95245;-70
2022/07/28 12:29:12;;;;;;;2.42;0.88;;;;;;;;;;4996738;28;95582;-70
2022/07/28 12:31:40;;;;;;;1.02;0.82;;;;;;;;;;5000922;28;92470;-70
2022/07/28 12:34:10;;;;;;;4.05;1.00;;;;;;;;;;4998237;28;92430;-71
2022/07/28 12:36:37;;;;;;;0.70;0.70;;;;;;;;;;4997613;28;93130;-71
2022/07/28 12:39:05;;;;;;;5.22;1.17;;;;;;;;;;4997083;28;92465;-71
2022/07/28 12:41:38;;;;;;;1.42;1.10;;;;;;;;;;4996918;28;93053;-70
2022/07/28 12:44:04;;;;;;;1.90;0.98;;;;;;;;;;4998314;28;92641;-70
2022/07/28 12:46:31;;;;;;;1.45;1.15;;;;;;;;;;4996732;28;92940;-70
2022/07/28 12:48:58;;;;;;;1.98;1.10;;;;;;;;;;4997789;28;93019;-70
2022/07/28 12:51:39;;;;;;;1.30;0.85;;;;;;;;;;4996402;28;95557;-70
2022/07/28 12:54:08;;;;;;;0.93;0.80;;;;;;;;;;5000001;28;92515;-70
2022/07/28 12:56:46;;;;;;;2.47;1.05;;;;;;;;;;4997182;28;93386;-70
2022/07/28 12:59:13;;;;;;;0.82;0.82;;;;;;;;;;4997829;28;92419;-70
2022/07/28 13:01:51;;;;;;;1.45;1.00;;;;;;;;;;4996525;28;92951;-70
2022/07/28 13:04:36;;;;;;;3.47;0.88;;;;;;;;;;4990576;28;93232;-71
2022/07/28 13:07:08;;;;;;;1.95;1.00;;;;;;;;;;4997503;27;92642;-70
2022/07/28 13:09:35;;;;;;;;;;;;;;;;;;4998380;28;94023;-70
2022/07/28 13:12:01;;;;;;;2.03;0.90;;;;;;;;;;4997066;28;123710;-70
2022/07/28 13:14:37;;;;;;;1.77;1.10;;;;;;;;;;4997086;28;92486;-70
2022/07/28 13:17:04;;;;;;;2.15;0.90;;;;;;;;;;4998329;28;94850;-70
2022/07/28 13:19:30;;;;;;;4.88;1.25;;;;;;;;;;4997112;28;94054;-70
2022/07/28 13:21:58;;;;;;;1.05;0.95;;;;;;;;;;4996418;28;92981;-71
2022/07/28 13:24:32;;;;;;;4.30;0.98;;;;;;;;;;4997232;28;93342;-70
2022/07/28 13:27:00;;;;;;;2.72;0.90;;;;;;;;;;4996977;28;92435;-70
2022/07/28 13:29:27;;;;;;;2.75;1.55;;;;;;;;;;4988438;28;93896;-71
2022/07/28 13:31:53;;;;;;;1.95;1.20;;;;;;;;;;4996801;28;93145;-70
2022/07/28 13:34:20;;;;;;;1.00;0.90;;;;;;;;;;4997774;28;92315;-70
2022/07/28 13:36:48;;;;;;;4.38;1.15;;;;;;;;;;4996044;28;93178;-70
2022/07/28 13:39:15;;;;;;;2.05;1.10;;;;;;;;;;4999845;28;93402;-70
2022/07/28 13:41:41;;;;;;;1.65;1.00;;;;;;;;;;4995447;28;94713;-71
2022/07/28 13:44:23;;;;;;;;;;;;;;;;;;4997122;28;94038;-70
2022/07/28 13:46:50;;;;;;;1.70;1.05;;;;;;;;;;4996912;28;118413;-71
2022/07/28 13:49:17;;;;;;;1.52;1.10;;;;;;;;;;4995997;28;94031;-71
2022/07/28 13:51:47;;;;;;;2.65;1.23;;;;;;;;;;4996003;28;93110;-70
2022/07/28 13:54:13;;;;;;;3.83;1.20;;;;;;;;;;4996331;28;92501;-70
2022/07/28 13:56:40;;;;;;;1.00;0.90;;;;;;;;;;4996019;28;93979;-70
2022/07/28 13:59:07;;;;;;;2.30;1.13;;;;;;;;;;4997378;28;92494;-70
2022/07/28 14:01:34;;;;;;;3.45;1.20;;;;;;;;;;4999764;28;92532;-70
2022/07/28 14:04:03;;;;;;;2.88;1.30;;;;;;;;;;4995855;28;93238;-70
2022/07/28 14:06:29;;;;;;;4.10;0.82;;;;;;;;;;4994671;28;94878;-70
2022/07/28 14:08:56;;;;;;;8.93;1.27;;;;;;;;;;4995749;28;95567;-71
2022/07/28 14:11:24;;;;;;;2.50;1.17;;;;;;;;;;4995206;28;93422;-70
2022/07/28 14:13:51;;;;;;;5.50;1.00;;;;;;;;;;4996110;28;94016;-71
2022/07/28 14:16:21;;;;;;;1.23;1.10;;;;;;;;;;4996948;28;93144;-70
2022/07/28 14:18:48;;;;;;;1.15;1.00;;;;;;;;;;4994929;28;93129;-70
2022/07/28 14:21:14;;;;;;;1.60;1.10;;;;;;;;;;4999347;28;92447;-70
2022/07/28 14:23:40;;;;;;;1.27;0.70;;;;;;;;;;4996376;28;93430;-70
2022/07/28 14:26:07;;;;;;;2.60;1.30;;;;;;;;;;4995393;28;92576;-70
2022/07/28 14:28:53;;;;;;;2.50;1.08;;;;;;;;;;4989195;28;92932;-70
2022/07/28 14:31:21;;;;;;;0.80;0.80;;;;;;;;;;4993559;28;95658;-70
2022/07/28 14:33:48;;;;;;;1.50;1.08;;;;;;;;;;4995345;28;92640;-71
2022/07/28 14:36:20;;;;;;;0.80;0.80;;;;;;;;;;4996711;28;92847;-71
2022/07/28 14:38:47;;;;;;;3.63;1.05;;;;;;;;;;4994483;28;94314;-70
2022/07/28 14:41:19;;;;;;;3.58;1.40;;;;;;;;;;4996016;28;92540;-70
2022/07/28 14:43:45;;;;;;;3.95;1.15;;;;;;;;;;4998256;28;93005;-70
2022/07/28 14:46:11;;;;;;;1.92;1.00;;;;;;;;;;4994420;28;92470;-71
2022/07/28 14:48:46;;;;;;;4.65;1.38;;;;;;;;;;4996402;28;93085;-70
2022/07/28 14:51:13;;;;;;;3.80;1.20;;;;;;;;;;4995749;28;94019;-70
2022/07/28 14:53:41;;;;;;;1.52;1.20;;;;;;;;;;4994375;28;92466;-71
2022/07/28 14:56:12;;;;;;;3.35;0.90;;;;;;;;;;4985821;28;96373;-70